createdAt,value
2023-01-12T00:01:57.667Z,99332.41
2023-01-12T00:04:25.378Z,99313.72
2023-01-12T00:06:53.722Z,99309.06
2023-01-12T00:09:21.243Z,99313.06
2023-01-12T00:11:48.799Z,99307.41
2023-01-12T00:14:17.096Z,99317.63
2023-01-12T00:16:45.036Z,99310.84
2023-01-12T00:19:16.371Z,99305.88
2023-01-12T00:21:56.358Z,99314.28
2023-01-12T00:24:26.137Z,99297.47
2023-01-12T00:26:54.519Z,99330.34
2023-01-12T00:29:22.528Z,99313.94
2023-01-12T00:31:50.332Z,99309.97
2023-01-12T00:34:19.560Z,99325.22
2023-01-12T00:36:48.109Z,99308.19
2023-01-12T00:39:17.018Z,99304.53
2023-01-12T00:42:02.916Z,99306.38
2023-01-12T00:44:48.312Z,99294.19
2023-01-12T00:47:16.792Z,99300.31
2023-01-12T00:49:45.909Z,99287.16
2023-01-12T00:52:24.963Z,99294.44
2023-01-12T00:54:57.423Z,99278.56
2023-01-12T00:57:24.925Z,99274.25
2023-01-12T00:59:54.903Z,99267.09
2023-01-12T01:02:22.570Z,99270.88
2023-01-12T01:04:51.875Z,99270.16
2023-01-12T01:07:21.434Z,99272.50
2023-01-12T01:09:48.976Z,99268.81
2023-01-12T01:12:16.468Z,99281.59
2023-01-12T01:14:44.043Z,99277.84
2023-01-12T01:17:11.514Z,99277.06
2023-01-12T01:19:38.974Z,99293.47
2023-01-12T01:22:07.815Z,99289.59
2023-01-12T01:24:35.319Z,99292.34
2023-01-12T01:27:02.761Z,99299.78
2023-01-12T01:29:30.250Z,99288.81
2023-01-12T01:31:58.245Z,99282.72
2023-01-12T01:34:25.762Z,99280.28
2023-01-12T01:36:53.232Z,99299.44
2023-01-12T01:39:22.272Z,99300.75
2023-01-12T01:41:49.838Z,99301.44
2023-01-12T01:44:53.661Z,99286.03
2023-01-12T01:47:31.367Z,99280.00
2023-01-12T01:50:02.107Z,99290.41
2023-01-12T01:52:34.642Z,99276.88
2023-01-12T01:55:09.404Z,99276.66
2023-01-12T01:57:41.808Z,99280.16
2023-01-12T02:00:12.814Z,99266.97
2023-01-12T02:02:41.836Z,99255.34
2023-01-12T02:05:11.027Z,99263.66
2023-01-12T02:07:39.378Z,99259.91
2023-01-12T02:14:08.324Z,99243.81
2023-01-12T02:16:40.589Z,99233.66
2023-01-12T02:19:29.994Z,99245.00
2023-01-12T02:22:35.911Z,99247.00
2023-01-12T02:25:20.532Z,99245.00
2023-01-12T02:28:11.523Z,99222.19
2023-01-12T02:31:12.608Z,99217.50
2023-01-12T02:33:53.684Z,99225.06
2023-01-12T02:36:31.281Z,99217.09
2023-01-12T02:39:05.892Z,99199.03
2023-01-12T02:41:56.371Z,99199.50
2023-01-12T02:44:32.836Z,99187.38
2023-01-12T02:47:06.240Z,99189.94
2023-01-12T02:49:39.830Z,99172.59
2023-01-12T02:52:13.859Z,99176.59
2023-01-12T02:54:44.667Z,99167.56
2023-01-12T02:57:12.229Z,99170.44
2023-01-12T02:59:44.161Z,99168.22
2023-01-12T03:02:16.200Z,99185.03
2023-01-12T03:04:44.284Z,99169.72
2023-01-12T03:07:37.097Z,99155.13
2023-01-12T03:10:24.289Z,99159.94
2023-01-12T03:12:54.980Z,99144.34
2023-01-12T03:15:24.996Z,99143.75
2023-01-12T03:18:00.560Z,99136.38
2023-01-12T03:20:31.816Z,99137.97
2023-01-12T03:23:07.216Z,99132.03
2023-01-12T03:25:35.901Z,99134.78
2023-01-12T03:28:08.222Z,99129.38
2023-01-12T03:30:39.648Z,99118.88
2023-01-12T03:33:10.042Z,99129.13
2023-01-12T03:35:44.553Z,99122.03
2023-01-12T03:38:20.114Z,99112.75
2023-01-12T03:40:54.016Z,99112.50
2023-01-12T03:43:29.699Z,99108.91
2023-01-12T03:46:02.405Z,99108.84
2023-01-12T03:48:37.901Z,99133.63
2023-01-12T03:51:10.343Z,99124.25
2023-01-12T03:53:39.390Z,99103.78
2023-01-12T03:56:10.610Z,99102.47
2023-01-12T03:58:38.375Z,99097.72
2023-01-12T04:01:06.825Z,99086.41
2023-01-12T04:03:35.871Z,99090.16
2023-01-12T04:06:03.419Z,99092.22
2023-01-12T04:08:31.580Z,99082.41
2023-01-12T04:10:59.096Z,99086.09
2023-01-12T04:13:25.730Z,99088.75
2023-01-12T04:15:53.481Z,99082.38
2023-01-12T04:18:20.998Z,99074.69
2023-01-12T04:20:50.018Z,99077.25
2023-01-12T04:23:16.617Z,99080.59
2023-01-12T04:25:44.137Z,99075.03
2023-01-12T04:28:11.836Z,99064.16
2023-01-12T04:30:39.357Z,99063.03
2023-01-12T04:33:09.202Z,99055.28
2023-01-12T04:35:36.744Z,99083.53
2023-01-12T04:38:07.774Z,99071.75
2023-01-12T04:40:35.338Z,99053.28
2023-01-12T04:43:07.189Z,99061.59
2023-01-12T04:45:37.634Z,99058.34
2023-01-12T04:48:06.536Z,99063.88
2023-01-12T04:50:34.314Z,99065.44
2023-01-12T04:53:03.034Z,99055.06
2023-01-12T04:55:31.961Z,99048.03
2023-01-12T04:57:59.586Z,99042.41
2023-01-12T05:00:27.460Z,99036.31
2023-01-12T05:02:58.055Z,99026.50
2023-01-12T05:05:25.674Z,99011.66
2023-01-12T05:08:09.839Z,99004.25
2023-01-12T05:10:38.746Z,99008.66
2023-01-12T05:13:06.591Z,98993.53
2023-01-12T05:15:34.213Z,99000.19
2023-01-12T05:18:01.723Z,98996.50
2023-01-12T05:20:29.249Z,99008.28
2023-01-12T05:22:57.699Z,98994.66
2023-01-12T05:25:26.681Z,98996.75
2023-01-12T05:27:57.690Z,98990.44
2023-01-12T05:30:25.319Z,98965.16
2023-01-12T05:32:53.094Z,98974.34
2023-01-12T05:35:20.597Z,98979.50
2023-01-12T05:37:48.121Z,98966.53
2023-01-12T05:40:16.359Z,98961.84
2023-01-12T05:43:01.673Z,98970.47
2023-01-12T05:45:30.525Z,98948.44
2023-01-12T05:47:59.224Z,98945.88
2023-01-12T05:50:26.921Z,98949.16
2023-01-12T05:52:55.605Z,98938.06
2023-01-12T05:55:23.175Z,98928.00
2023-01-12T05:57:50.816Z,98934.00
2023-01-12T06:00:19.631Z,98927.84
2023-01-12T06:02:48.728Z,98911.25
2023-01-12T06:05:16.308Z,98900.09
2023-01-12T06:07:43.806Z,98896.34
2023-01-12T06:10:12.741Z,98883.22
2023-01-12T06:12:58.272Z,98885.13
2023-01-12T06:15:25.968Z,98874.75
2023-01-12T06:17:54.854Z,98862.81
2023-01-12T06:20:22.345Z,98862.28
2023-01-12T06:22:49.841Z,98884.25
2023-01-12T06:25:17.595Z,98886.91
2023-01-12T06:27:45.107Z,98884.63
2023-01-12T06:30:13.519Z,98858.28
2023-01-12T06:32:41.500Z,98863.81
2023-01-12T06:35:18.966Z,98884.97
2023-01-12T06:37:46.765Z,98862.28
2023-01-12T06:40:14.687Z,98878.19
2023-01-12T06:42:42.532Z,98868.13
2023-01-12T06:45:12.212Z,98846.66
2023-01-12T06:47:45.681Z,98838.34
2023-01-12T06:50:15.834Z,98863.91
2023-01-12T06:52:43.379Z,98847.22
2023-01-12T06:55:11.032Z,98870.28
2023-01-12T06:57:38.766Z,98857.81
2023-01-12T07:00:07.926Z,98847.59
2023-01-12T07:02:35.481Z,98849.72
2023-01-12T07:05:03.292Z,98825.84
2023-01-12T07:07:32.317Z,98812.66
2023-01-12T07:09:59.773Z,98812.91
2023-01-12T07:12:27.261Z,98810.88
2023-01-12T07:14:56.316Z,98815.97
2023-01-12T07:17:23.788Z,98832.50
2023-01-12T07:19:51.288Z,98857.31
2023-01-12T07:22:18.764Z,98852.00
2023-01-12T07:24:47.596Z,98866.97
2023-01-12T07:27:15.123Z,98869.38
2023-01-12T07:29:42.637Z,98870.63
2023-01-12T07:32:10.156Z,98864.28
2023-01-12T07:34:37.630Z,98852.19
2023-01-12T07:37:05.092Z,98840.09
2023-01-12T07:39:32.561Z,98846.91
2023-01-12T07:42:19.101Z,98845.47
2023-01-12T07:44:46.556Z,98858.06
2023-01-12T07:47:13.991Z,98864.91
2023-01-12T07:49:41.881Z,98872.28
2023-01-12T07:52:11.691Z,98872.53
2023-01-12T07:54:39.514Z,98852.94
2023-01-12T07:57:11.112Z,98868.69
2023-01-12T07:59:39.379Z,98882.34
2023-01-12T08:02:07.551Z,98856.13
2023-01-12T08:04:35.288Z,98867.13
2023-01-12T08:07:03.145Z,98859.84
2023-01-12T08:09:30.881Z,98865.06
2023-01-12T08:11:58.373Z,98871.84
2023-01-12T08:14:33.144Z,98874.94
2023-01-12T08:17:03.053Z,98844.63
2023-01-12T08:19:38.696Z,98857.56
2023-01-12T08:22:15.688Z,98853.97
2023-01-12T08:24:48.079Z,98858.47
2023-01-12T08:27:17.693Z,98857.47
2023-01-12T08:29:49.779Z,98847.03
2023-01-12T08:32:18.605Z,98869.44
2023-01-12T08:34:50.415Z,98850.72
2023-01-12T08:37:21.944Z,98856.78
2023-01-12T08:39:50.746Z,98838.28
2023-01-12T08:42:18.608Z,98852.44
2023-01-12T08:44:47.591Z,98861.69
2023-01-12T08:47:19.685Z,98854.13
2023-01-12T08:49:47.412Z,98865.09
2023-01-12T08:52:16.720Z,98857.72
2023-01-12T08:54:44.522Z,98862.28
2023-01-12T08:57:12.274Z,98874.63
2023-01-12T08:59:40.249Z,98873.06
2023-01-12T09:02:11.901Z,98865.00
2023-01-12T09:04:40.424Z,98877.69
2023-01-12T09:07:08.133Z,98861.94
2023-01-12T09:09:36.367Z,98850.53
2023-01-12T09:12:04.621Z,98860.91
2023-01-12T09:14:32.091Z,98866.56
2023-01-12T09:16:59.640Z,98870.50
2023-01-12T09:19:28.491Z,98874.63
2023-01-12T09:21:55.968Z,98889.34
2023-01-12T09:24:23.451Z,98887.38
2023-01-12T09:26:50.921Z,98872.47
2023-01-12T09:29:18.386Z,98891.56
2023-01-12T09:31:46.553Z,98896.19
2023-01-12T09:34:14.456Z,98882.84
2023-01-12T09:36:44.550Z,98888.31
2023-01-12T09:39:26.895Z,98893.38
2023-01-12T09:42:12.808Z,98892.44
2023-01-12T09:45:00.692Z,98887.56
2023-01-12T09:47:34.601Z,98907.00
2023-01-12T09:50:10.139Z,98914.88
2023-01-12T09:52:42.842Z,98907.13
2023-01-12T09:55:17.156Z,98897.72
2023-01-12T09:57:59.618Z,98897.63
2023-01-12T10:00:28.466Z,98899.25
2023-01-12T10:03:08.793Z,98914.78
2023-01-12T10:05:41.985Z,98912.28
2023-01-12T10:08:18.437Z,98903.72
2023-01-12T10:10:59.311Z,98924.44
2023-01-12T10:13:33.108Z,98919.13
2023-01-12T10:16:07.513Z,98926.94
2023-01-12T10:18:47.558Z,98911.38
2023-01-12T10:21:15.634Z,98927.09
2023-01-12T10:23:45.471Z,98927.88
2023-01-12T10:26:21.858Z,98931.47
2023-01-12T10:28:52.477Z,98921.63
2023-01-12T10:31:22.496Z,98933.66
2023-01-12T10:34:04.796Z,98940.22
2023-01-12T10:36:32.766Z,98935.16
2023-01-12T10:39:04.546Z,98944.78
2023-01-12T10:41:32.971Z,98929.97
2023-01-12T10:44:14.279Z,98932.84
2023-01-12T10:46:41.887Z,98928.31
2023-01-12T10:49:20.161Z,98938.94
2023-01-12T10:51:54.324Z,98926.66
2023-01-12T10:54:25.360Z,98926.47
2023-01-12T10:56:59.690Z,98934.13
2023-01-12T10:59:31.394Z,98950.97
2023-01-12T11:02:14.599Z,98940.13
2023-01-12T11:04:44.840Z,98939.19
2023-01-12T11:07:15.442Z,98943.19
2023-01-12T11:09:44.728Z,98929.03
2023-01-12T11:12:24.819Z,98926.47
2023-01-12T11:15:01.590Z,98930.06
2023-01-12T11:17:48.861Z,98934.03
2023-01-12T11:20:22.783Z,98933.50
2023-01-12T11:22:55.507Z,98918.50
2023-01-12T11:25:26.032Z,98917.31
2023-01-12T11:27:58.333Z,98948.06
2023-01-12T11:30:31.154Z,98928.22
2023-01-12T11:33:08.651Z,98916.91
2023-01-12T11:35:41.473Z,98923.88
2023-01-12T11:38:13.421Z,98928.16
2023-01-12T11:40:44.663Z,98924.59
2023-01-12T11:43:55.591Z,98929.91
2023-01-12T11:46:27.834Z,98901.94
2023-01-12T11:49:02.855Z,98888.25
2023-01-12T11:51:30.766Z,98946.03
2023-01-12T11:53:58.824Z,98901.19
2023-01-12T11:57:02.302Z,98910.09
2023-01-12T11:59:41.793Z,98894.97
2023-01-12T12:02:24.541Z,98915.63
2023-01-12T12:05:03.325Z,98901.94
2023-01-12T12:07:41.927Z,98901.94
2023-01-12T12:10:22.327Z,98907.28
2023-01-12T12:13:21.393Z,98887.34
2023-01-12T12:16:03.216Z,98888.56
2023-01-12T12:18:42.652Z,98911.91
2023-01-12T12:21:33.472Z,98898.16
2023-01-12T12:24:10.317Z,98905.50
2023-01-12T12:26:42.500Z,98904.63
2023-01-12T12:29:25.429Z,98895.13
2023-01-12T12:32:09.010Z,98896.97
2023-01-12T12:35:02.183Z,98903.16
2023-01-12T12:37:41.226Z,98908.47
2023-01-12T12:40:22.506Z,98904.63
2023-01-12T12:43:18.912Z,98908.66
2023-01-12T12:45:51.383Z,98898.00
2023-01-12T12:48:26.809Z,98895.56
2023-01-12T12:51:03.737Z,98897.63
2023-01-12T12:53:35.490Z,98896.22
2023-01-12T12:56:05.608Z,98895.63
2023-01-12T12:58:44.856Z,98882.25
2023-01-12T13:01:42.650Z,98885.44
2023-01-12T13:04:14.255Z,98876.53
2023-01-12T13:06:45.759Z,98883.38
2023-01-12T13:09:41.838Z,98869.13
2023-01-12T13:12:31.814Z,98870.88
2023-01-12T13:15:20.783Z,98868.19
2023-01-12T13:17:50.113Z,98874.28
2023-01-12T13:21:02.354Z,98869.31
2023-01-12T13:23:50.472Z,98870.69
2023-01-12T13:26:40.008Z,98864.00
2023-01-12T13:29:38.423Z,98862.97
2023-01-12T13:32:45.492Z,98859.38
2023-01-12T13:35:55.850Z,98869.31
2023-01-12T13:38:53.305Z,98872.97
2023-01-12T13:41:44.267Z,98868.13
2023-01-12T13:44:16.066Z,98869.78
2023-01-12T13:46:47.528Z,98863.06
2023-01-12T13:49:45.131Z,98877.88
2023-01-12T13:52:22.880Z,98859.28
2023-01-12T13:54:52.590Z,98861.59
2023-01-12T13:57:21.945Z,98879.28
2023-01-12T14:00:00.021Z,98878.81
2023-01-12T14:02:31.443Z,98881.50
2023-01-12T14:05:16.709Z,98872.03
2023-01-12T14:07:57.714Z,98871.25
2023-01-12T14:10:36.896Z,98877.88
2023-01-12T14:13:24.607Z,98874.72
2023-01-12T14:16:19.170Z,98879.69
2023-01-12T14:18:49.107Z,98873.22
2023-01-12T14:21:25.644Z,98875.44
2023-01-12T14:23:56.638Z,98890.81
2023-01-12T14:26:27.326Z,98878.44
2023-01-12T14:28:55.065Z,98865.34
2023-01-12T14:31:28.018Z,98872.03
2023-01-12T14:33:57.513Z,98863.44
2023-01-12T14:36:28.348Z,98886.44
2023-01-12T14:38:58.787Z,98870.38
2023-01-12T14:41:47.408Z,98862.28
2023-01-12T14:44:36.969Z,98858.69
2023-01-12T14:47:04.733Z,98870.38
2023-01-12T14:49:34.114Z,98866.44
2023-01-12T14:52:02.935Z,98855.88
2023-01-12T14:54:32.778Z,98860.16
2023-01-12T14:57:04.875Z,98849.47
2023-01-12T14:59:34.962Z,98845.47
2023-01-12T15:02:20.160Z,98847.78
2023-01-12T15:04:53.573Z,98837.31
2023-01-12T15:07:22.326Z,98839.22
2023-01-12T15:09:54.937Z,98831.03
2023-01-12T15:12:47.114Z,98840.44
2023-01-12T15:15:17.827Z,98831.53
2023-01-12T15:18:03.116Z,98851.47
2023-01-12T15:20:52.588Z,98834.94
2023-01-12T15:23:39.494Z,98837.22
2023-01-12T15:26:06.938Z,98843.25
2023-01-12T15:28:35.784Z,98832.25
2023-01-12T15:31:03.334Z,98836.63
2023-01-12T15:33:31.507Z,98842.72
2023-01-12T15:35:59.202Z,98838.44
2023-01-12T15:38:28.923Z,98849.94
2023-01-12T15:40:56.781Z,98832.94
2023-01-12T15:43:24.299Z,98844.63
2023-01-12T15:45:54.542Z,98840.03
2023-01-12T15:48:22.079Z,98821.25
2023-01-12T15:50:50.403Z,98837.50
2023-01-12T15:53:19.983Z,98832.56
2023-01-12T15:55:48.233Z,98832.88
2023-01-12T15:58:16.862Z,98824.13
2023-01-12T16:00:45.467Z,98830.38
2023-01-12T16:03:34.564Z,98820.22
2023-01-12T16:06:02.443Z,98834.19
2023-01-12T16:08:29.956Z,98813.66
2023-01-12T16:11:13.466Z,98834.44
2023-01-12T16:13:41.628Z,98843.00
2023-01-12T16:16:14.434Z,98822.66
2023-01-12T16:18:43.695Z,98816.44
2023-01-12T16:21:16.499Z,98824.28
2023-01-12T16:23:44.528Z,98833.44
2023-01-12T16:26:12.060Z,98810.25
2023-01-12T16:28:40.006Z,98811.28
2023-01-12T16:31:08.663Z,98820.00
2023-01-12T16:33:36.145Z,98814.78
2023-01-12T16:36:05.476Z,98815.38
2023-01-12T16:38:33.483Z,98819.91
2023-01-12T16:41:08.815Z,98799.97
2023-01-12T16:43:37.382Z,98820.09
2023-01-12T16:46:05.406Z,98806.97
2023-01-12T16:48:34.627Z,98795.25
2023-01-12T16:51:02.250Z,98790.09
2023-01-12T16:53:31.002Z,98794.38
2023-01-12T16:56:02.820Z,98782.31
2023-01-12T16:58:30.291Z,98790.88
2023-01-12T17:00:59.350Z,98784.53
2023-01-12T17:03:27.156Z,98790.88
2023-01-12T17:05:54.683Z,98797.22
2023-01-12T17:08:22.225Z,98799.25
2023-01-12T17:10:51.090Z,98779.66
2023-01-12T17:13:18.627Z,98794.00
2023-01-12T17:15:46.395Z,98787.72
2023-01-12T17:18:13.971Z,98785.63
2023-01-12T17:20:41.803Z,98790.00
2023-01-12T17:23:09.584Z,98780.34
2023-01-12T17:25:37.034Z,98781.78
2023-01-12T17:28:06.930Z,98791.44
2023-01-12T17:30:34.623Z,98773.94
2023-01-12T17:33:02.727Z,98783.75
2023-01-12T17:35:30.184Z,98785.56
2023-01-12T17:37:57.831Z,98776.16
2023-01-12T17:40:27.144Z,98775.19
2023-01-12T17:43:02.976Z,98787.63
2023-01-12T17:45:32.155Z,98780.41
2023-01-12T17:47:59.710Z,98782.59
2023-01-12T17:50:27.244Z,98782.31
2023-01-12T17:52:54.975Z,98786.88
2023-01-12T17:55:22.663Z,98790.78
2023-01-12T17:57:50.133Z,98792.88
2023-01-12T18:00:18.779Z,98779.50
2023-01-12T18:02:47.581Z,98788.97
2023-01-12T18:05:15.185Z,98781.19
2023-01-12T18:07:42.719Z,98805.31
2023-01-12T18:10:11.583Z,98781.47
2023-01-12T18:12:39.127Z,98773.31
2023-01-12T18:15:07.912Z,98774.56
2023-01-12T18:17:35.587Z,98770.53
2023-01-12T18:20:05.063Z,98775.69
2023-01-12T18:22:32.598Z,98773.59
2023-01-12T18:25:00.127Z,98776.53
2023-01-12T18:27:27.814Z,98771.97
2023-01-12T18:29:55.409Z,98771.59
2023-01-12T18:32:23.107Z,98765.50
2023-01-12T18:34:50.732Z,98772.53
2023-01-12T18:37:19.594Z,98766.28
2023-01-12T18:39:47.095Z,98752.69
2023-01-12T18:42:32.179Z,98764.94
2023-01-12T18:45:00.993Z,98755.34
2023-01-12T18:47:46.255Z,98769.28
2023-01-12T18:50:31.579Z,98767.50
2023-01-12T18:53:18.229Z,98747.00
2023-01-12T18:55:45.768Z,98764.66
2023-01-12T18:58:13.279Z,98774.63
2023-01-12T19:00:40.811Z,98760.47
2023-01-12T19:03:08.391Z,98764.66
2023-01-12T19:05:43.959Z,98763.31
2023-01-12T19:08:30.227Z,98817.06
2023-01-12T19:11:08.922Z,98771.88
2023-01-12T19:13:54.292Z,98774.16
2023-01-12T19:16:39.582Z,98786.88
2023-01-12T19:19:07.890Z,98783.44
2023-01-12T19:21:53.630Z,98766.94
2023-01-12T19:24:39.898Z,98766.94
2023-01-12T19:27:25.406Z,98764.06
2023-01-12T19:29:52.855Z,98754.31
2023-01-12T19:32:20.307Z,98759.91
2023-01-12T19:34:49.164Z,98772.63
2023-01-12T19:37:16.765Z,98760.00
2023-01-12T19:39:59.695Z,98762.81
2023-01-12T19:42:46.070Z,98762.06
2023-01-12T19:45:13.425Z,98749.72
2023-01-12T19:47:41.205Z,98756.47
2023-01-12T19:50:10.455Z,98747.75
2023-01-12T19:52:39.267Z,98739.97
2023-01-12T19:55:11.785Z,98739.56
2023-01-12T19:57:40.073Z,98741.50
2023-01-12T20:00:09.847Z,98764.53
2023-01-12T20:02:37.324Z,98760.97
2023-01-12T20:05:05.237Z,98762.44
2023-01-12T20:07:32.781Z,98756.28
2023-01-12T20:10:00.968Z,98751.75
2023-01-12T20:12:30.045Z,98758.31
2023-01-12T20:14:58.222Z,98769.97
2023-01-12T20:17:25.726Z,98759.34
2023-01-12T20:19:53.243Z,98768.34
2023-01-12T20:22:20.961Z,98755.41
2023-01-12T20:24:48.824Z,98752.59
2023-01-12T20:27:16.468Z,98761.50
2023-01-12T20:29:45.349Z,98757.63
2023-01-12T20:32:13.066Z,98755.25
2023-01-12T20:34:40.543Z,98756.09
2023-01-12T20:37:08.193Z,98757.16
2023-01-12T20:39:35.733Z,98765.50
2023-01-12T20:42:03.261Z,98767.13
2023-01-12T20:44:30.837Z,98766.75
2023-01-12T20:46:59.739Z,98765.81
2023-01-12T20:49:27.318Z,98769.31
2023-01-12T20:51:54.953Z,98762.28
2023-01-12T20:54:22.453Z,98760.09
2023-01-12T20:56:50.016Z,98758.75
2023-01-12T20:59:17.512Z,98756.38
2023-01-12T21:01:45.537Z,98757.81
2023-01-12T21:04:14.473Z,98761.69
2023-01-12T21:06:43.343Z,98756.75
2023-01-12T21:09:10.798Z,98749.34
2023-01-12T21:11:38.348Z,98747.84
2023-01-12T21:14:05.825Z,98750.03
2023-01-12T21:16:33.658Z,98743.78
2023-01-12T21:19:02.346Z,98747.28
2023-01-12T21:21:31.223Z,98753.06
2023-01-12T21:23:58.893Z,98756.88
2023-01-12T21:26:26.590Z,98747.47
2023-01-12T21:28:54.057Z,98741.00
2023-01-12T21:31:21.598Z,98742.03
2023-01-12T21:33:49.124Z,98730.25
2023-01-12T21:36:18.162Z,98733.13
2023-01-12T21:38:50.366Z,98729.50
2023-01-12T21:41:18.290Z,98728.19
2023-01-12T21:43:49.150Z,98740.72
2023-01-12T21:46:17.222Z,98728.44
2023-01-12T21:48:45.471Z,98733.78
2023-01-12T21:51:15.530Z,98743.41
2023-01-12T21:53:43.809Z,98742.44
2023-01-12T21:56:14.102Z,98735.28
2023-01-12T21:58:41.631Z,98741.97
2023-01-12T22:01:10.637Z,98743.88
2023-01-12T22:03:38.656Z,98739.09
2023-01-12T22:06:07.443Z,98723.03
2023-01-12T22:08:36.014Z,98726.19
2023-01-12T22:11:08.356Z,98744.97
2023-01-12T22:13:37.506Z,98731.88
2023-01-12T22:16:06.354Z,98734.56
2023-01-12T22:18:34.807Z,98721.75
2023-01-12T22:21:03.270Z,98735.88
2023-01-12T22:23:30.823Z,98721.34
2023-01-12T22:26:01.912Z,98721.22
2023-01-12T22:28:29.532Z,98720.38
2023-01-12T22:30:58.631Z,98722.66
2023-01-12T22:33:26.147Z,98722.94
2023-01-12T22:35:53.662Z,98738.22
2023-01-12T22:38:21.204Z,98718.78
2023-01-12T22:40:48.718Z,98718.59
2023-01-12T22:43:28.905Z,98714.41
2023-01-12T22:45:58.706Z,98712.94
2023-01-12T22:48:26.695Z,98713.56
2023-01-12T22:50:55.351Z,98716.50
2023-01-12T22:53:24.031Z,98713.06
2023-01-12T22:55:52.251Z,98712.00
2023-01-12T22:58:19.802Z,98713.28
2023-01-12T23:00:48.758Z,98703.69
2023-01-12T23:03:17.829Z,98711.28
2023-01-12T23:05:47.738Z,98706.03
2023-01-12T23:08:16.401Z,98704.53
2023-01-12T23:10:45.095Z,98707.19
2023-01-12T23:13:17.823Z,98699.53
2023-01-12T23:15:47.916Z,98703.31
2023-01-12T23:18:18.815Z,98690.72
2023-01-12T23:20:47.023Z,98696.31
2023-01-12T23:23:14.956Z,98685.72
2023-01-12T23:25:44.603Z,98687.13
2023-01-12T23:28:13.843Z,98687.91
2023-01-12T23:30:42.258Z,98686.06
2023-01-12T23:33:10.262Z,98688.28
2023-01-12T23:35:41.751Z,98690.28
2023-01-12T23:38:15.147Z,98683.81
2023-01-12T23:40:43.373Z,98676.09
2023-01-12T23:43:11.019Z,98679.25
2023-01-12T23:45:38.668Z,98666.13
2023-01-12T23:48:07.876Z,98660.81
2023-01-12T23:50:35.610Z,98671.44
2023-01-12T23:53:04.615Z,98665.28
2023-01-12T23:55:32.248Z,98652.19
2023-01-12T23:57:59.849Z,98657.03
